sensor_id;sensor_type;location;lat;lon;timestamp;pressure;altitude;pressure_sealevel;temperature;humidity
30516;BME280;17297;54.022;10.760;2022-08-23T00:01:34;101729.19;;;21.86;65.44
30516;BME280;17297;54.022;10.760;2022-08-23T00:04:06;101726.72;;;21.85;65.11
30516;BME280;17297;54.022;10.760;2022-08-23T00:06:32;101733.00;;;21.85;65.34
30516;BME280;17297;54.022;10.760;2022-08-23T00:08:57;101725.06;;;21.84;65.14
30516;BME280;17297;54.022;10.760;2022-08-23T00:11:32;101729.66;;;21.83;65.17
30516;BME280;17297;54.022;10.760;2022-08-23T00:14:02;101737.88;;;21.83;65.59
30516;BME280;17297;54.022;10.760;2022-08-23T00:16:28;101728.03;;;21.82;65.59
30516;BME280;17297;54.022;10.760;2022-08-23T00:18:53;101730.53;;;21.84;65.09
30516;BME280;17297;54.022;10.760;2022-08-23T00:21:19;101729.94;;;21.82;65.44
30516;BME280;17297;54.022;10.760;2022-08-23T00:23:44;101728.28;;;21.81;65.56
30516;BME280;17297;54.022;10.760;2022-08-23T00:26:10;101738.38;;;21.80;65.34
30516;BME280;17297;54.022;10.760;2022-08-23T00:28:35;101728.78;;;21.78;65.40
30516;BME280;17297;54.022;10.760;2022-08-23T00:31:01;101719.97;;;21.76;65.12
30516;BME280;17297;54.022;10.760;2022-08-23T00:33:26;101723.78;;;21.75;65.46
30516;BME280;17297;54.022;10.760;2022-08-23T00:35:52;101720.19;;;21.74;65.40
30516;BME280;17297;54.022;10.760;2022-08-23T00:38:18;101716.06;;;21.72;65.23
30516;BME280;17297;54.022;10.760;2022-08-23T00:40:46;101719.28;;;21.68;65.34
30516;BME280;17297;54.022;10.760;2022-08-23T00:43:13;101711.28;;;21.67;65.58
30516;BME280;17297;54.022;10.760;2022-08-23T00:46:07;101714.28;;;21.65;65.57
30516;BME280;17297;54.022;10.760;2022-08-23T00:48:56;101721.63;;;21.65;65.68
30516;BME280;17297;54.022;10.760;2022-08-23T00:51:29;101720.00;;;21.64;65.54
30516;BME280;17297;54.022;10.760;2022-08-23T00:54:00;101717.25;;;21.64;65.59
30516;BME280;17297;54.022;10.760;2022-08-23T00:56:29;101720.00;;;21.64;65.73
30516;BME280;17297;54.022;10.760;2022-08-23T00:58:55;101722.72;;;21.64;65.97
30516;BME280;17297;54.022;10.760;2022-08-23T01:01:21;101722.50;;;21.65;65.64
30516;BME280;17297;54.022;10.760;2022-08-23T01:03:50;101722.50;;;21.65;65.64
30516;BME280;17297;54.022;10.760;2022-08-23T01:06:40;101726.88;;;21.66;65.49
30516;BME280;17297;54.022;10.760;2022-08-23T01:09:12;101724.16;;;21.66;65.88
30516;BME280;17297;54.022;10.760;2022-08-23T01:11:49;101724.16;;;21.66;65.78
30516;BME280;17297;54.022;10.760;2022-08-23T01:14:30;101724.16;;;21.66;65.73
30516;BME280;17297;54.022;10.760;2022-08-23T01:17:12;101729.63;;;21.66;65.73
30516;BME280;17297;54.022;10.760;2022-08-23T01:19:47;101732.09;;;21.68;65.67
30516;BME280;17297;54.022;10.760;2022-08-23T01:25:04;101736.88;;;21.73;65.55
30516;BME280;17297;54.022;10.760;2022-08-23T01:27:32;101741.25;;;21.74;65.66
30516;BME280;17297;54.022;10.760;2022-08-23T01:29:57;101742.09;;;21.74;65.94
30516;BME280;17297;54.022;10.760;2022-08-23T01:32:23;101744.59;;;21.76;65.94
30516;BME280;17297;54.022;10.760;2022-08-23T01:34:50;101737.22;;;21.76;65.64
30516;BME280;17297;54.022;10.760;2022-08-23T01:37:18;101736.38;;;21.76;65.76
30516;BME280;17297;54.022;10.760;2022-08-23T01:39:44;101741.03;;;21.75;65.76
30516;BME280;17297;54.022;10.760;2022-08-23T01:42:11;101738.53;;;21.74;65.73
30516;BME280;17297;54.022;10.760;2022-08-23T01:44:37;101734.63;;;21.70;65.60
30516;BME280;17297;54.022;10.760;2022-08-23T01:47:03;101733.19;;;21.67;65.41
30516;BME280;17297;54.022;10.760;2022-08-23T01:49:28;101735.09;;;21.66;65.75
30516;BME280;17297;54.022;10.760;2022-08-23T01:51:54;101732.03;;;21.63;65.46
30516;BME280;17297;54.022;10.760;2022-08-23T01:54:20;101729.50;;;21.61;65.51
30516;BME280;17297;54.022;10.760;2022-08-23T01:56:46;101737.72;;;21.61;65.69
30516;BME280;17297;54.022;10.760;2022-08-23T01:59:13;101731.69;;;21.59;65.67
30516;BME280;17297;54.022;10.760;2022-08-23T02:01:43;101730.00;;;21.58;65.92
30516;BME280;17297;54.022;10.760;2022-08-23T02:04:08;101729.44;;;21.56;65.65
30516;BME280;17297;54.022;10.760;2022-08-23T02:06:33;101725.28;;;21.54;65.60
30516;BME280;17297;54.022;10.760;2022-08-23T02:09:01;101719.19;;;21.52;65.87
30516;BME280;17297;54.022;10.760;2022-08-23T02:11:30;101718.38;;;21.51;65.77
30516;BME280;17297;54.022;10.760;2022-08-23T02:13:59;101716.13;;;21.48;65.59
30516;BME280;17297;54.022;10.760;2022-08-23T02:16:43;101718.50;;;21.44;65.81
30516;BME280;17297;54.022;10.760;2022-08-23T02:19:11;101721.72;;;21.41;65.96
30516;BME280;17297;54.022;10.760;2022-08-23T02:21:39;101723.88;;;21.39;65.89
30516;BME280;17297;54.022;10.760;2022-08-23T02:24:07;101718.88;;;21.36;66.12
30516;BME280;17297;54.022;10.760;2022-08-23T02:26:38;101726.47;;;21.34;65.74
30516;BME280;17297;54.022;10.760;2022-08-23T02:29:05;101729.22;;;21.34;66.07
30516;BME280;17297;54.022;10.760;2022-08-23T02:31:32;101725.88;;;21.32;66.29
30516;BME280;17297;54.022;10.760;2022-08-23T02:33:58;101727.78;;;21.32;66.32
30516;BME280;17297;54.022;10.760;2022-08-23T02:36:27;101728.84;;;21.31;66.24
30516;BME280;17297;54.022;10.760;2022-08-23T02:38:55;101727.44;;;21.28;66.33
30516;BME280;17297;54.022;10.760;2022-08-23T02:41:21;101722.19;;;21.27;66.14
30516;BME280;17297;54.022;10.760;2022-08-23T02:43:50;101736.13;;;21.25;66.04
30516;BME280;17297;54.022;10.760;2022-08-23T02:46:16;101746.00;;;21.26;66.21
30516;BME280;17297;54.022;10.760;2022-08-23T02:48:42;101741.34;;;21.27;66.02
30516;BME280;17297;54.022;10.760;2022-08-23T02:51:08;101739.69;;;21.26;66.06
30516;BME280;17297;54.022;10.760;2022-08-23T02:53:34;101739.69;;;21.26;65.99
30516;BME280;17297;54.022;10.760;2022-08-23T02:56:04;101744.34;;;21.25;66.12
30516;BME280;17297;54.022;10.760;2022-08-23T02:58:30;101746.25;;;21.25;66.54
30516;BME280;17297;54.022;10.760;2022-08-23T03:00:57;101744.56;;;21.23;66.01
30516;BME280;17297;54.022;10.760;2022-08-23T03:03:23;101739.09;;;21.23;66.33
30516;BME280;17297;54.022;10.760;2022-08-23T03:05:49;101748.13;;;21.24;66.28
30516;BME280;17297;54.022;10.760;2022-08-23T03:08:15;101742.91;;;21.22;65.97
30516;BME280;17297;54.022;10.760;2022-08-23T03:10:49;101746.97;;;21.20;66.13
30516;BME280;17297;54.022;10.760;2022-08-23T03:13:16;101742.56;;;21.19;66.36
30516;BME280;17297;54.022;10.760;2022-08-23T03:15:43;101743.63;;;21.18;66.36
30516;BME280;17297;54.022;10.760;2022-08-23T03:18:09;101743.88;;;21.16;66.42
30516;BME280;17297;54.022;10.760;2022-08-23T03:20:38;101736.75;;;21.15;66.15
30516;BME280;17297;54.022;10.760;2022-08-23T03:23:08;101737.78;;;21.14;66.16
30516;BME280;17297;54.022;10.760;2022-08-23T03:25:35;101732.56;;;21.13;66.23
30516;BME280;17297;54.022;10.760;2022-08-23T03:28:09;101741.00;;;21.11;66.10
30516;BME280;17297;54.022;10.760;2022-08-23T03:30:40;101746.13;;;21.08;66.10
30516;BME280;17297;54.022;10.760;2022-08-23T03:33:07;101737.31;;;21.06;66.48
30516;BME280;17297;54.022;10.760;2022-08-23T03:35:33;101739.47;;;21.04;66.61
30516;BME280;17297;54.022;10.760;2022-08-23T03:38:00;101739.72;;;21.02;66.56
30516;BME280;17297;54.022;10.760;2022-08-23T03:40:26;101749.00;;;21.01;66.63
30516;BME280;17297;54.022;10.760;2022-08-23T03:42:52;101753.03;;;20.98;66.78
30516;BME280;17297;54.022;10.760;2022-08-23T03:45:20;101762.06;;;20.99;66.49
30516;BME280;17297;54.022;10.760;2022-08-23T03:47:47;101763.16;;;20.98;66.51
30516;BME280;17297;54.022;10.760;2022-08-23T03:50:12;101763.97;;;20.98;66.50
30516;BME280;17297;54.022;10.760;2022-08-23T03:52:40;101768.13;;;21.01;66.52
30516;BME280;17297;54.022;10.760;2022-08-23T03:55:06;101758.03;;;21.02;66.69
30516;BME280;17297;54.022;10.760;2022-08-23T03:57:34;101758.63;;;21.04;66.48
30516;BME280;17297;54.022;10.760;2022-08-23T03:59:59;101767.66;;;21.04;66.64
30516;BME280;17297;54.022;10.760;2022-08-23T04:02:28;101766.59;;;21.05;66.52
30516;BME280;17297;54.022;10.760;2022-08-23T04:04:53;101758.38;;;21.05;66.15
30516;BME280;17297;54.022;10.760;2022-08-23T04:07:38;101760.28;;;21.05;66.21
30516;BME280;17297;54.022;10.760;2022-08-23T04:10:07;101762.19;;;21.04;66.26
30516;BME280;17297;54.022;10.760;2022-08-23T04:12:36;101764.44;;;21.07;66.43
30516;BME280;17297;54.022;10.760;2022-08-23T04:15:05;101768.84;;;21.08;66.06
30516;BME280;17297;54.022;10.760;2022-08-23T04:17:35;101769.44;;;21.10;66.06
30516;BME280;17297;54.022;10.760;2022-08-23T04:20:03;101773.63;;;21.13;66.24
30516;BME280;17297;54.022;10.760;2022-08-23T04:22:30;101778.84;;;21.14;66.22
30516;BME280;17297;54.022;10.760;2022-08-23T04:24:55;101786.81;;;21.16;66.09
30516;BME280;17297;54.022;10.760;2022-08-23T04:27:21;101783.81;;;21.17;65.70
30516;BME280;17297;54.022;10.760;2022-08-23T04:29:47;101789.06;;;21.19;65.57
30516;BME280;17297;54.022;10.760;2022-08-23T04:32:13;101789.91;;;21.19;65.82
30516;BME280;17297;54.022;10.760;2022-08-23T04:34:39;101786.09;;;21.20;65.56
30516;BME280;17297;54.022;10.760;2022-08-23T04:37:08;101792.38;;;21.21;65.50
30516;BME280;17297;54.022;10.760;2022-08-23T04:39:34;101794.06;;;21.22;65.68
30516;BME280;17297;54.022;10.760;2022-08-23T04:42:21;101795.00;;;21.28;65.79
30516;BME280;17297;54.022;10.760;2022-08-23T04:44:48;101793.22;;;21.33;65.50
30516;BME280;17297;54.022;10.760;2022-08-23T04:47:14;101800.03;;;21.42;65.65
30516;BME280;17297;54.022;10.760;2022-08-23T04:49:40;101804.06;;;21.52;65.30
30516;BME280;17297;54.022;10.760;2022-08-23T04:52:06;101809.50;;;21.63;64.90
30516;BME280;17297;54.022;10.760;2022-08-23T04:54:32;101797.47;;;21.76;64.82
30516;BME280;17297;54.022;10.760;2022-08-23T04:57:03;101802.91;;;21.88;64.48
30516;BME280;17297;54.022;10.760;2022-08-23T04:59:30;101804.53;;;22.01;64.52
30516;BME280;17297;54.022;10.760;2022-08-23T05:01:57;101801.63;;;22.07;64.25
30516;BME280;17297;54.022;10.760;2022-08-23T05:04:23;101802.13;;;22.16;64.13
30516;BME280;17297;54.022;10.760;2022-08-23T05:06:49;101804.47;;;22.24;63.90
30516;BME280;17297;54.022;10.760;2022-08-23T05:09:16;101798.34;;;22.34;63.59
30516;BME280;17297;54.022;10.760;2022-08-23T05:11:42;101803.56;;;22.35;63.42
30516;BME280;17297;54.022;10.760;2022-08-23T05:14:07;101803.91;;;22.39;63.43
30516;BME280;17297;54.022;10.760;2022-08-23T05:16:33;101810.72;;;22.36;63.57
30516;BME280;17297;54.022;10.760;2022-08-23T05:19:07;101818.09;;;22.36;63.84
30516;BME280;17297;54.022;10.760;2022-08-23T05:21:38;101808.81;;;22.37;63.83
30516;BME280;17297;54.022;10.760;2022-08-23T05:24:04;101818.94;;;22.36;63.53
30516;BME280;17297;54.022;10.760;2022-08-23T05:26:32;101820.63;;;22.38;63.63
30516;BME280;17297;54.022;10.760;2022-08-23T05:28:58;101815.13;;;22.38;63.46
30516;BME280;17297;54.022;10.760;2022-08-23T05:31:28;101814.88;;;22.39;63.59
30516;BME280;17297;54.022;10.760;2022-08-23T05:33:57;101814.88;;;22.39;63.61
30516;BME280;17297;54.022;10.760;2022-08-23T05:36:46;101815.13;;;22.38;63.08
30516;BME280;17297;54.022;10.760;2022-08-23T05:39:12;101817.75;;;22.32;62.94
30516;BME280;17297;54.022;10.760;2022-08-23T05:41:39;101817.66;;;22.27;63.11
30516;BME280;17297;54.022;10.760;2022-08-23T05:44:09;101819.50;;;22.22;62.94
30516;BME280;17297;54.022;10.760;2022-08-23T05:46:36;101813.91;;;22.17;62.89
30516;BME280;17297;54.022;10.760;2022-08-23T05:49:21;101824.50;;;22.13;63.19
30516;BME280;17297;54.022;10.760;2022-08-23T05:51:48;101818.69;;;22.09;63.40
30516;BME280;17297;54.022;10.760;2022-08-23T05:54:17;101824.16;;;22.09;63.24
30516;BME280;17297;54.022;10.760;2022-08-23T05:56:47;101820.34;;;22.10;63.13
30516;BME280;17297;54.022;10.760;2022-08-23T05:59:14;101815.69;;;22.11;62.97
30516;BME280;17297;54.022;10.760;2022-08-23T06:01:42;101830.22;;;22.11;63.32
30516;BME280;17297;54.022;10.760;2022-08-23T06:04:13;101831.88;;;22.12;63.28
30516;BME280;17297;54.022;10.760;2022-08-23T06:06:42;101825.09;;;22.15;63.14
30516;BME280;17297;54.022;10.760;2022-08-23T06:09:11;101830.94;;;22.19;63.22
30516;BME280;17297;54.022;10.760;2022-08-23T06:11:39;101833.53;;;22.25;63.04
30516;BME280;17297;54.022;10.760;2022-08-23T06:14:07;101835.88;;;22.33;62.86
30516;BME280;17297;54.022;10.760;2022-08-23T06:16:37;101838.81;;;22.44;62.83
30516;BME280;17297;54.022;10.760;2022-08-23T06:19:04;101841.41;;;22.50;62.43
30516;BME280;17297;54.022;10.760;2022-08-23T06:21:46;101847.00;;;22.55;62.34
30516;BME280;17297;54.022;10.760;2022-08-23T06:24:13;101848.16;;;22.59;61.99
30516;BME280;17297;54.022;10.760;2022-08-23T06:26:48;101847.16;;;22.66;61.96
30516;BME280;17297;54.022;10.760;2022-08-23T06:29:16;101851.06;;;22.70;62.18
30516;BME280;17297;54.022;10.760;2022-08-23T06:31:48;101857.72;;;22.74;61.89
30516;BME280;17297;54.022;10.760;2022-08-23T06:34:30;101854.25;;;22.78;61.79
30516;BME280;17297;54.022;10.760;2022-08-23T06:37:36;101862.94;;;23.21;61.97
30516;BME280;17297;54.022;10.760;2022-08-23T06:40:05;101854.56;;;23.88;61.89
30516;BME280;17297;54.022;10.760;2022-08-23T06:42:51;101851.97;;;24.48;60.52
30516;BME280;17297;54.022;10.760;2022-08-23T06:45:23;101855.47;;;24.70;59.68
30516;BME280;17297;54.022;10.760;2022-08-23T06:47:49;101855.31;;;24.82;58.80
30516;BME280;17297;54.022;10.760;2022-08-23T06:50:14;101860.06;;;24.92;58.32
30516;BME280;17297;54.022;10.760;2022-08-23T06:52:58;101855.72;;;24.96;58.42
30516;BME280;17297;54.022;10.760;2022-08-23T06:55:47;101863.47;;;25.04;57.56
30516;BME280;17297;54.022;10.760;2022-08-23T06:58:21;101858.81;;;25.04;57.87
30516;BME280;17297;54.022;10.760;2022-08-23T07:04:08;101863.72;;;24.97;56.91
30516;BME280;17297;54.022;10.760;2022-08-23T07:06:53;101857.91;;;24.94;56.80
30516;BME280;17297;54.022;10.760;2022-08-23T07:09:19;101866.59;;;24.80;56.73
30516;BME280;17297;54.022;10.760;2022-08-23T07:11:45;101866.75;;;24.69;57.13
30516;BME280;17297;54.022;10.760;2022-08-23T07:14:15;101866.34;;;24.55;56.62
30516;BME280;17297;54.022;10.760;2022-08-23T07:16:47;101869.28;;;24.48;57.37
30516;BME280;17297;54.022;10.760;2022-08-23T07:19:14;101867.13;;;24.50;56.51
30516;BME280;17297;54.022;10.760;2022-08-23T07:21:40;101864.16;;;24.57;57.03
30516;BME280;17297;54.022;10.760;2022-08-23T07:24:06;101865.28;;;24.61;57.20
30516;BME280;17297;54.022;10.760;2022-08-23T07:26:33;101864.00;;;24.69;56.48
30516;BME280;17297;54.022;10.760;2022-08-23T07:28:59;101866.59;;;24.80;56.22
30516;BME280;17297;54.022;10.760;2022-08-23T07:31:29;101867.78;;;24.89;55.88
30516;BME280;17297;54.022;10.760;2022-08-23T07:33:57;101866.31;;;24.82;55.30
30516;BME280;17297;54.022;10.760;2022-08-23T07:36:24;101870.63;;;24.73;55.74
30516;BME280;17297;54.022;10.760;2022-08-23T07:38:51;101878.81;;;24.62;55.42
30516;BME280;17297;54.022;10.760;2022-08-23T07:41:18;101874.34;;;24.56;55.68
30516;BME280;17297;54.022;10.760;2022-08-23T07:43:46;101884.72;;;24.49;55.69
30516;BME280;17297;54.022;10.760;2022-08-23T07:46:12;101877.25;;;24.45;55.65
30516;BME280;17297;54.022;10.760;2022-08-23T07:48:38;101880.75;;;24.40;55.23
30516;BME280;17297;54.022;10.760;2022-08-23T07:51:18;101883.44;;;24.35;55.01
30516;BME280;17297;54.022;10.760;2022-08-23T07:53:44;101883.94;;;24.32;54.74
30516;BME280;17297;54.022;10.760;2022-08-23T07:56:13;101886.97;;;24.30;55.47
30516;BME280;17297;54.022;10.760;2022-08-23T07:58:55;101879.78;;;24.29;55.29
30516;BME280;17297;54.022;10.760;2022-08-23T08:01:40;101892.13;;;24.27;54.97
30516;BME280;17297;54.022;10.760;2022-08-23T08:04:08;101880.56;;;24.25;55.03
30516;BME280;17297;54.022;10.760;2022-08-23T08:06:42;101884.97;;;24.26;55.42
30516;BME280;17297;54.022;10.760;2022-08-23T08:09:11;101887.53;;;24.32;55.88
30516;BME280;17297;54.022;10.760;2022-08-23T08:11:40;101883.63;;;24.28;56.13
30516;BME280;17297;54.022;10.760;2022-08-23T08:14:09;101883.38;;;24.30;55.59
30516;BME280;17297;54.022;10.760;2022-08-23T08:16:45;101883.38;;;24.30;55.11
30516;BME280;17297;54.022;10.760;2022-08-23T08:19:18;101882.53;;;24.29;55.68
30516;BME280;17297;54.022;10.760;2022-08-23T08:21:52;101879.53;;;24.31;55.66
30516;BME280;17297;54.022;10.760;2022-08-23T08:24:26;101885.59;;;24.33;55.31
30516;BME280;17297;54.022;10.760;2022-08-23T08:26:56;101891.69;;;24.35;55.48
30516;BME280;17297;54.022;10.760;2022-08-23T08:29:22;101892.25;;;24.37;55.59
30516;BME280;17297;54.022;10.760;2022-08-23T08:31:49;101886.50;;;24.38;55.69
30516;BME280;17297;54.022;10.760;2022-08-23T08:34:16;101884.31;;;24.40;55.46
30516;BME280;17297;54.022;10.760;2022-08-23T08:36:48;101884.94;;;24.42;56.62
30516;BME280;17297;54.022;10.760;2022-08-23T08:39:21;101876.41;;;24.44;56.87
30516;BME280;17297;54.022;10.760;2022-08-23T08:41:58;101885.75;;;24.43;56.34
30516;BME280;17297;54.022;10.760;2022-08-23T08:47:37;101889.00;;;24.40;57.17
30516;BME280;17297;54.022;10.760;2022-08-23T08:52:34;101882.09;;;24.37;57.85
30516;BME280;17297;54.022;10.760;2022-08-23T08:55:11;101892.25;;;24.37;57.82
30516;BME280;17297;54.022;10.760;2022-08-23T08:57:42;101888.69;;;24.36;57.27
30516;BME280;17297;54.022;10.760;2022-08-23T09:00:20;101896.94;;;24.36;58.35
30516;BME280;17297;54.022;10.760;2022-08-23T09:02:48;101880.44;;;24.36;58.25
30516;BME280;17297;54.022;10.760;2022-08-23T09:05:26;101890.59;;;24.36;58.91
30516;BME280;17297;54.022;10.760;2022-08-23T09:08:19;101888.94;;;24.35;58.98
30516;BME280;17297;54.022;10.760;2022-08-23T09:18:41;101886.25;;;24.40;57.06
30516;BME280;17297;54.022;10.760;2022-08-23T09:21:08;101891.25;;;24.43;56.50
30516;BME280;17297;54.022;10.760;2022-08-23T09:23:46;101897.06;;;24.47;59.05
30516;BME280;17297;54.022;10.760;2022-08-23T09:28:49;101893.75;;;24.45;60.90
30516;BME280;17297;54.022;10.760;2022-08-23T09:31:36;101893.19;;;24.42;61.10
30516;BME280;17297;54.022;10.760;2022-08-23T09:34:02;101897.25;;;24.40;61.22
30516;BME280;17297;54.022;10.760;2022-08-23T09:36:41;101894.44;;;24.35;61.36
30516;BME280;17297;54.022;10.760;2022-08-23T09:41:49;101897.91;;;24.25;61.94
30516;BME280;17297;54.022;10.760;2022-08-23T09:44:33;101892.09;;;24.22;62.26
30516;BME280;17297;54.022;10.760;2022-08-23T09:49:32;101886.28;;;24.18;62.47
30516;BME280;17297;54.022;10.760;2022-08-23T09:52:56;101887.59;;;24.15;63.50
30516;BME280;17297;54.022;10.760;2022-08-23T09:55:30;101880.13;;;24.11;62.51
30516;BME280;17297;54.022;10.760;2022-08-23T09:58:01;101886.97;;;24.08;62.30
30516;BME280;17297;54.022;10.760;2022-08-23T10:00:32;101889.72;;;24.08;62.53
30516;BME280;17297;54.022;10.760;2022-08-23T10:03:20;101883.66;;;24.06;62.17
30516;BME280;17297;54.022;10.760;2022-08-23T10:05:53;101881.72;;;24.07;61.37
30516;BME280;17297;54.022;10.760;2022-08-23T10:08:27;101880.31;;;24.04;61.56
30516;BME280;17297;54.022;10.760;2022-08-23T10:11:14;101874.00;;;24.04;61.70
30516;BME280;17297;54.022;10.760;2022-08-23T10:13:42;101869.91;;;24.06;61.19
30516;BME280;17297;54.022;10.760;2022-08-23T10:16:30;101861.91;;;24.05;62.12
30516;BME280;17297;54.022;10.760;2022-08-23T10:22:21;101859.44;;;24.03;61.63
30516;BME280;17297;54.022;10.760;2022-08-23T10:25:29;101858.00;;;24.01;61.47
30516;BME280;17297;54.022;10.760;2022-08-23T10:28:47;101863.28;;;24.02;61.84
30516;BME280;17297;54.022;10.760;2022-08-23T10:31:33;101864.09;;;24.03;62.36
30516;BME280;17297;54.022;10.760;2022-08-23T10:34:12;101865.16;;;24.02;60.99
30516;BME280;17297;54.022;10.760;2022-08-23T10:39:25;101876.50;;;24.05;62.07
30516;BME280;17297;54.022;10.760;2022-08-23T10:42:00;101872.91;;;24.05;62.10
30516;BME280;17297;54.022;10.760;2022-08-23T10:47:28;101861.34;;;24.03;62.68
30516;BME280;17297;54.022;10.760;2022-08-23T10:50:03;101874.25;;;24.02;63.02
30516;BME280;17297;54.022;10.760;2022-08-23T10:52:43;101872.34;;;24.03;62.36
30516;BME280;17297;54.022;10.760;2022-08-23T10:55:17;101871.75;;;24.01;62.81
30516;BME280;17297;54.022;10.760;2022-08-23T10:58:00;101866.53;;;23.99;62.76
30516;BME280;17297;54.022;10.760;2022-08-23T11:00:26;101863.78;;;23.99;62.61
30516;BME280;17297;54.022;10.760;2022-08-23T11:03:06;101869.28;;;23.99;63.45
30516;BME280;17297;54.022;10.760;2022-08-23T11:05:36;101875.34;;;24.01;64.80
30516;BME280;17297;54.022;10.760;2022-08-23T11:08:28;101875.66;;;24.05;65.12
30516;BME280;17297;54.022;10.760;2022-08-23T11:10:55;101869.63;;;24.08;65.04
30516;BME280;17297;54.022;10.760;2022-08-23T11:13:24;101869.28;;;23.99;65.29
30516;BME280;17297;54.022;10.760;2022-08-23T11:16:00;101871.44;;;23.97;65.00
30516;BME280;17297;54.022;10.760;2022-08-23T11:18:48;101863.13;;;23.92;65.07
30516;BME280;17297;54.022;10.760;2022-08-23T11:34:13;101864.47;;;23.89;63.80
30516;BME280;17297;54.022;10.760;2022-08-23T11:48:07;101863.63;;;23.89;63.49
30516;BME280;17297;54.022;10.760;2022-08-23T11:53:53;101870.84;;;23.95;64.26
30516;BME280;17297;54.022;10.760;2022-08-23T12:10:22;101863.41;;;23.90;63.26
30516;BME280;17297;54.022;10.760;2022-08-23T12:21:08;101860.75;;;24.01;62.34
30516;BME280;17297;54.022;10.760;2022-08-23T12:23:48;101862.94;;;23.98;60.73
30516;BME280;17297;54.022;10.760;2022-08-23T12:29:02;101874.50;;;24.01;61.40
30516;BME280;17297;54.022;10.760;2022-08-23T12:36:44;101863.28;;;24.02;61.18
30516;BME280;17297;54.022;10.760;2022-08-23T12:39:31;101855.59;;;24.04;60.98
30516;BME280;17297;54.022;10.760;2022-08-23T12:42:15;101857.81;;;24.07;60.80
30516;BME280;17297;54.022;10.760;2022-08-23T12:44:45;101860.84;;;24.06;61.78
30516;BME280;17297;54.022;10.760;2022-08-23T12:47:22;101870.41;;;24.03;60.00
30516;BME280;17297;54.022;10.760;2022-08-23T12:52:29;101860.25;;;24.04;60.27
30516;BME280;17297;54.022;10.760;2022-08-23T12:54:56;101867.41;;;24.05;59.95
30516;BME280;17297;54.022;10.760;2022-08-23T12:57:37;101860.53;;;24.02;59.98
30516;BME280;17297;54.022;10.760;2022-08-23T13:02:38;101859.75;;;24.07;59.83
30516;BME280;17297;54.022;10.760;2022-08-23T13:05:13;101852.09;;;24.09;61.50
30516;BME280;17297;54.022;10.760;2022-08-23T13:07:41;101859.81;;;24.12;61.28
30516;BME280;17297;54.022;10.760;2022-08-23T13:10:07;101853.22;;;24.13;60.59
30516;BME280;17297;54.022;10.760;2022-08-23T13:12:34;101849.88;;;24.11;59.71
30516;BME280;17297;54.022;10.760;2022-08-23T13:15:00;101840.56;;;24.12;58.72
30516;BME280;17297;54.022;10.760;2022-08-23T13:17:37;101844.38;;;24.11;58.25
30516;BME280;17297;54.022;10.760;2022-08-23T13:22:33;101850.16;;;24.09;59.19
30516;BME280;17297;54.022;10.760;2022-08-23T13:25:05;101839.75;;;24.11;59.59
30516;BME280;17297;54.022;10.760;2022-08-23T13:27:34;101860.88;;;24.11;58.69
30516;BME280;17297;54.022;10.760;2022-08-23T13:30:20;101845.47;;;24.10;58.55
30516;BME280;17297;54.022;10.760;2022-08-23T13:32:48;101838.88;;;24.11;59.18
30516;BME280;17297;54.022;10.760;2022-08-23T13:35:45;101852.38;;;24.12;59.94
30516;BME280;17297;54.022;10.760;2022-08-23T13:38:19;101850.97;;;24.10;58.47
30516;BME280;17297;54.022;10.760;2022-08-23T13:45:54;101846.59;;;24.09;59.93
30516;BME280;17297;54.022;10.760;2022-08-23T13:48:32;101852.59;;;24.06;59.38
30516;BME280;17297;54.022;10.760;2022-08-23T13:53:43;101840.25;;;24.08;59.70
30516;BME280;17297;54.022;10.760;2022-08-23T13:56:09;101841.31;;;24.07;59.17
30516;BME280;17297;54.022;10.760;2022-08-23T13:58:34;101850.41;;;24.08;59.48
30516;BME280;17297;54.022;10.760;2022-08-23T14:01:02;101846.59;;;24.09;59.73
30516;BME280;17297;54.022;10.760;2022-08-23T14:03:29;101836.41;;;24.09;59.61
30516;BME280;17297;54.022;10.760;2022-08-23T14:05:55;101839.41;;;24.08;58.97
30516;BME280;17297;54.022;10.760;2022-08-23T14:08:21;101837.00;;;24.11;60.24
30516;BME280;17297;54.022;10.760;2022-08-23T14:10:47;101814.16;;;24.11;58.98
30516;BME280;17297;54.022;10.760;2022-08-23T14:13:14;101825.41;;;24.09;58.43
30516;BME280;17297;54.022;10.760;2022-08-23T14:15:42;101831.75;;;24.10;58.08
30516;BME280;17297;54.022;10.760;2022-08-23T14:18:08;101824.09;;;24.12;59.38
30516;BME280;17297;54.022;10.760;2022-08-23T14:20:35;101822.47;;;24.16;58.97
30516;BME280;17297;54.022;10.760;2022-08-23T14:23:00;101840.81;;;24.10;57.83
30516;BME280;17297;54.022;10.760;2022-08-23T14:25:26;101835.91;;;24.12;58.70
30516;BME280;17297;54.022;10.760;2022-08-23T14:27:52;101833.41;;;24.11;58.95
30516;BME280;17297;54.022;10.760;2022-08-23T14:32:52;101820.16;;;24.08;58.77
30516;BME280;17297;54.022;10.760;2022-08-23T14:35:17;101823.78;;;24.08;59.01
30516;BME280;17297;54.022;10.760;2022-08-23T14:37:43;101829.25;;;24.08;59.76
30516;BME280;17297;54.022;10.760;2022-08-23T14:40:08;101831.94;;;24.03;58.05
30516;BME280;17297;54.022;10.760;2022-08-23T14:42:34;101825.34;;;24.04;58.64
30516;BME280;17297;54.022;10.760;2022-08-23T14:44:59;101827.03;;;24.05;57.69
30516;BME280;17297;54.022;10.760;2022-08-23T14:47:25;101822.59;;;24.04;58.20
30516;BME280;17297;54.022;10.760;2022-08-23T14:49:51;101824.28;;;24.05;58.80
30516;BME280;17297;54.022;10.760;2022-08-23T14:52:16;101832.78;;;24.04;58.70